createdAt,value
2023-01-15T00:01:23.734Z,99281.56
2023-01-15T00:03:47.411Z,99276.75
2023-01-15T00:06:11.234Z,99275.31
2023-01-15T00:08:34.798Z,99281.97
2023-01-15T00:10:58.281Z,99280.56
2023-01-15T00:13:23.344Z,99284.44
2023-01-15T00:15:46.875Z,99281.50
2023-01-15T00:18:10.441Z,99292.22
2023-01-15T00:20:33.992Z,99290.84
2023-01-15T00:22:57.603Z,99285.03
2023-01-15T00:25:38.824Z,99281.94
2023-01-15T00:28:02.409Z,99278.50
2023-01-15T00:30:27.310Z,99271.09
2023-01-15T00:32:51.378Z,99263.88
2023-01-15T00:35:18.061Z,99255.66
2023-01-15T00:37:41.655Z,99257.19
2023-01-15T00:40:08.505Z,99244.19
2023-01-15T00:42:32.113Z,99238.28
2023-01-15T00:44:55.690Z,99230.59
2023-01-15T00:47:20.679Z,99226.16
2023-01-15T00:49:45.935Z,99232.28
2023-01-15T00:52:09.731Z,99247.38
2023-01-15T00:54:34.270Z,99245.00
2023-01-15T00:56:57.833Z,99248.03
2023-01-15T00:59:21.411Z,99240.69
2023-01-15T01:01:45.316Z,99229.13
2023-01-15T01:04:10.309Z,99236.50
2023-01-15T01:06:33.983Z,99228.25
2023-01-15T01:08:58.107Z,99218.72
2023-01-15T01:11:26.646Z,99227.97
2023-01-15T01:13:50.253Z,99234.91
2023-01-15T01:16:30.609Z,99233.69
2023-01-15T01:18:54.583Z,99228.16
2023-01-15T01:21:19.574Z,99229.72
2023-01-15T01:23:43.177Z,99228.91
2023-01-15T01:26:07.169Z,99227.03
2023-01-15T01:28:30.727Z,99246.91
2023-01-15T01:30:54.220Z,99244.94
2023-01-15T01:33:17.886Z,99234.56
2023-01-15T01:35:41.408Z,99226.72
2023-01-15T01:38:06.462Z,99218.38
2023-01-15T01:40:30.020Z,99219.06
2023-01-15T01:42:53.780Z,99198.63
2023-01-15T01:45:25.767Z,99192.56
2023-01-15T01:47:49.470Z,99200.34
2023-01-15T01:50:15.662Z,99202.06
2023-01-15T01:52:44.769Z,99204.38
2023-01-15T01:55:12.115Z,99213.53
2023-01-15T01:57:36.175Z,99208.38
2023-01-15T02:00:00.827Z,99219.91
2023-01-15T02:02:24.641Z,99215.06
2023-01-15T02:04:48.710Z,99209.34
2023-01-15T02:07:12.778Z,99205.38
2023-01-15T02:09:36.351Z,99214.41
2023-01-15T02:12:10.493Z,99216.00
2023-01-15T02:14:40.312Z,99223.66
2023-01-15T02:17:13.468Z,99222.72
2023-01-15T02:19:52.779Z,99221.41
2023-01-15T02:22:30.278Z,99220.84
2023-01-15T02:25:08.350Z,99214.94
2023-01-15T02:27:33.828Z,99226.03
2023-01-15T02:30:03.516Z,99216.06
2023-01-15T02:32:40.492Z,99212.16
2023-01-15T02:35:11.612Z,99218.19
2023-01-15T02:37:39.352Z,99223.66
2023-01-15T02:40:07.765Z,99215.56
2023-01-15T02:42:35.875Z,99208.16
2023-01-15T02:45:03.103Z,99211.06
2023-01-15T02:47:31.789Z,99207.97
2023-01-15T02:49:59.417Z,99208.38
2023-01-15T02:52:29.520Z,99200.53
2023-01-15T02:54:59.431Z,99205.16
2023-01-15T02:57:27.553Z,99201.56
2023-01-15T02:59:58.367Z,99203.66
2023-01-15T03:02:26.692Z,99205.44
2023-01-15T03:04:58.903Z,99206.56
2023-01-15T03:07:27.126Z,99200.91
2023-01-15T03:09:53.296Z,99210.59
2023-01-15T03:12:23.037Z,99202.41
2023-01-15T03:14:57.409Z,99205.09
2023-01-15T03:17:23.915Z,99203.94
2023-01-15T03:19:52.393Z,99194.66
2023-01-15T03:22:25.302Z,99195.31
2023-01-15T03:24:52.833Z,99212.63
2023-01-15T03:27:16.929Z,99203.69
2023-01-15T03:29:49.670Z,99196.66
2023-01-15T03:32:15.144Z,99185.53
2023-01-15T03:34:48.891Z,99191.56
2023-01-15T03:37:16.174Z,99196.16
2023-01-15T03:39:40.755Z,99201.81
2023-01-15T03:42:46.883Z,99193.28
2023-01-15T03:45:18.334Z,99192.44
2023-01-15T03:47:55.489Z,99206.34
2023-01-15T03:50:29.735Z,99229.66
2023-01-15T03:53:13.020Z,99276.63
2023-01-15T03:55:51.722Z,99273.63
2023-01-15T03:58:20.940Z,99276.84
2023-01-15T04:00:51.823Z,99282.41
2023-01-15T04:03:20.601Z,99283.88
2023-01-15T04:05:46.217Z,99290.22
2023-01-15T04:08:10.902Z,99310.97
2023-01-15T04:10:34.605Z,99318.41
2023-01-15T04:13:00.396Z,99320.34
2023-01-15T04:15:24.073Z,99321.69
2023-01-15T04:17:47.966Z,99334.50
2023-01-15T04:20:14.713Z,99345.53
2023-01-15T04:22:40.358Z,99350.88
2023-01-15T04:25:04.316Z,99359.06
2023-01-15T04:27:28.033Z,99363.56
2023-01-15T04:29:51.615Z,99359.53
2023-01-15T04:32:15.237Z,99362.63
2023-01-15T04:34:38.797Z,99353.75
2023-01-15T04:37:03.959Z,99358.84
2023-01-15T04:39:27.524Z,99365.31
2023-01-15T04:42:08.290Z,99370.06
2023-01-15T04:44:31.967Z,99374.28
2023-01-15T04:46:57.444Z,99378.66
2023-01-15T04:49:21.196Z,99369.44
2023-01-15T04:51:44.907Z,99379.47
2023-01-15T04:54:12.320Z,99377.38
2023-01-15T04:56:41.728Z,99372.31
2023-01-15T04:59:05.312Z,99366.97
2023-01-15T05:01:29.030Z,99377.09
2023-01-15T05:03:52.661Z,99377.81
2023-01-15T05:06:17.713Z,99378.88
2023-01-15T05:08:42.042Z,99370.19
2023-01-15T05:11:08.636Z,99367.91
2023-01-15T05:13:33.538Z,99367.63
2023-01-15T05:15:57.183Z,99377.34
2023-01-15T05:18:20.798Z,99376.66
2023-01-15T05:20:44.369Z,99365.44
2023-01-15T05:23:07.999Z,99367.66
2023-01-15T05:25:31.519Z,99368.47
2023-01-15T05:27:56.508Z,99370.56
2023-01-15T05:30:20.378Z,99360.81
2023-01-15T05:32:44.010Z,99362.28
2023-01-15T05:35:08.774Z,99363.56
2023-01-15T05:37:32.616Z,99371.78
2023-01-15T05:39:56.119Z,99374.16
2023-01-15T05:42:19.689Z,99366.22
2023-01-15T05:44:44.647Z,99381.19
2023-01-15T05:47:08.332Z,99363.06
2023-01-15T05:49:32.154Z,99367.22
2023-01-15T05:51:56.280Z,99368.25
2023-01-15T05:54:23.280Z,99365.81
2023-01-15T05:56:47.769Z,99365.00
2023-01-15T05:59:11.502Z,99346.69
2023-01-15T06:01:37.344Z,99343.91
2023-01-15T06:04:01.977Z,99347.16
2023-01-15T06:06:25.630Z,99350.91
2023-01-15T06:08:49.184Z,99342.31
2023-01-15T06:11:13.551Z,99344.94
2023-01-15T06:13:37.202Z,99328.50
2023-01-15T06:16:01.370Z,99325.28
2023-01-15T06:18:26.361Z,99327.84
2023-01-15T06:20:49.942Z,99331.53
2023-01-15T06:23:13.447Z,99329.53
2023-01-15T06:25:37.758Z,99340.78
2023-01-15T06:28:01.269Z,99343.25
2023-01-15T06:30:24.867Z,99337.59
2023-01-15T06:32:48.416Z,99346.44
2023-01-15T06:35:14.486Z,99340.94
2023-01-15T06:37:38.011Z,99347.56
2023-01-15T06:40:01.589Z,99352.91
2023-01-15T06:42:42.327Z,99366.88
2023-01-15T06:45:24.601Z,99362.31
2023-01-15T06:47:49.122Z,99368.78
2023-01-15T06:50:15.818Z,99375.09
2023-01-15T06:52:39.396Z,99382.69
2023-01-15T06:55:02.969Z,99383.69
2023-01-15T06:57:26.643Z,99378.72
2023-01-15T06:59:51.790Z,99378.84
2023-01-15T07:02:15.424Z,99377.03
2023-01-15T07:04:39.147Z,99380.25
2023-01-15T07:07:04.529Z,99393.69
2023-01-15T07:09:28.163Z,99390.47
2023-01-15T07:11:51.730Z,99401.16
2023-01-15T07:14:15.515Z,99404.53
2023-01-15T07:16:39.316Z,99377.44
2023-01-15T07:19:03.208Z,99386.94
2023-01-15T07:21:26.938Z,99381.34
2023-01-15T07:23:51.893Z,99376.47
2023-01-15T07:26:15.507Z,99393.34
2023-01-15T07:28:39.227Z,99383.47
2023-01-15T07:31:02.839Z,99387.03
2023-01-15T07:33:26.393Z,99390.22
2023-01-15T07:35:49.929Z,99393.25
2023-01-15T07:38:13.503Z,99396.88
2023-01-15T07:40:39.047Z,99403.16
2023-01-15T07:43:19.936Z,99397.91
2023-01-15T07:46:02.855Z,99399.63
2023-01-15T07:48:45.433Z,99406.56
2023-01-15T07:51:08.999Z,99411.13
2023-01-15T07:53:32.686Z,99410.78
2023-01-15T07:55:57.661Z,99415.50
2023-01-15T07:58:21.177Z,99409.34
2023-01-15T08:00:44.809Z,99412.16
2023-01-15T08:03:09.300Z,99409.44
2023-01-15T08:05:32.960Z,99417.34
2023-01-15T08:07:56.486Z,99419.00
2023-01-15T08:10:20.881Z,99420.22
2023-01-15T08:13:03.289Z,99409.09
2023-01-15T08:15:27.180Z,99392.63
2023-01-15T08:17:52.547Z,99401.53
2023-01-15T08:20:18.853Z,99392.28
2023-01-15T08:22:42.617Z,99389.88
2023-01-15T08:25:08.459Z,99386.47
2023-01-15T08:27:33.428Z,99388.88
2023-01-15T08:29:58.832Z,99397.97
2023-01-15T08:32:22.346Z,99400.78
2023-01-15T08:34:45.980Z,99417.63
2023-01-15T08:37:09.941Z,99417.38
2023-01-15T08:39:33.672Z,99409.91
2023-01-15T08:41:57.812Z,99408.66
2023-01-15T08:44:23.592Z,99416.47
2023-01-15T08:46:49.033Z,99422.19
2023-01-15T08:49:13.037Z,99425.19
2023-01-15T08:51:36.534Z,99427.34
2023-01-15T08:54:00.105Z,99437.25
2023-01-15T08:56:23.650Z,99417.72
2023-01-15T08:58:48.791Z,99408.72
2023-01-15T09:01:15.965Z,99410.88
2023-01-15T09:03:41.071Z,99424.41
2023-01-15T09:06:05.971Z,99429.94
2023-01-15T09:08:30.743Z,99427.94
2023-01-15T09:10:59.207Z,99438.94
2023-01-15T09:13:22.819Z,99435.72
2023-01-15T09:15:46.298Z,99427.78
2023-01-15T09:18:10.766Z,99441.56
2023-01-15T09:20:35.822Z,99440.09
2023-01-15T09:22:59.400Z,99442.56
2023-01-15T09:25:24.444Z,99432.47
2023-01-15T09:27:49.854Z,99433.50
2023-01-15T09:30:19.726Z,99443.22
2023-01-15T09:32:43.305Z,99442.66
2023-01-15T09:35:07.974Z,99443.88
2023-01-15T09:37:33.247Z,99444.78
2023-01-15T09:39:56.857Z,99453.13
2023-01-15T09:42:43.461Z,99446.63
2023-01-15T09:45:22.989Z,99441.84
2023-01-15T09:48:04.624Z,99450.00
2023-01-15T09:50:45.368Z,99449.34
2023-01-15T09:53:45.409Z,99455.38
2023-01-15T09:56:23.574Z,99447.31
2023-01-15T09:58:47.827Z,99449.31
2023-01-15T10:01:18.429Z,99458.38
2023-01-15T10:03:46.876Z,99464.41
2023-01-15T10:06:17.398Z,99450.75
2023-01-15T10:08:47.269Z,99443.31
2023-01-15T10:11:51.494Z,99433.34
2023-01-15T10:14:30.914Z,99438.72
2023-01-15T10:16:55.488Z,99440.41
2023-01-15T10:19:19.184Z,99434.66
2023-01-15T10:21:54.753Z,99435.47
2023-01-15T10:24:25.712Z,99434.47
2023-01-15T10:26:56.416Z,99426.72
2023-01-15T10:29:26.181Z,99430.69
2023-01-15T10:31:55.254Z,99429.13
2023-01-15T10:34:45.767Z,99434.09
2023-01-15T10:37:16.834Z,99443.22
2023-01-15T10:39:50.655Z,99435.91
2023-01-15T10:42:30.001Z,99433.78
2023-01-15T10:45:04.302Z,99439.31
2023-01-15T10:47:34.913Z,99440.84
2023-01-15T10:50:00.095Z,99438.28
2023-01-15T10:52:30.262Z,99437.03
2023-01-15T10:55:04.799Z,99435.63
2023-01-15T10:57:45.975Z,99431.13
2023-01-15T11:00:14.240Z,99441.81
2023-01-15T11:02:42.688Z,99440.69
2023-01-15T11:05:07.965Z,99444.91
2023-01-15T11:07:54.394Z,99452.53
2023-01-15T11:10:25.842Z,99444.75
2023-01-15T11:13:12.600Z,99452.53
2023-01-15T11:15:53.870Z,99454.91
2023-01-15T11:18:41.734Z,99454.78
2023-01-15T11:21:14.077Z,99453.34
2023-01-15T11:23:37.996Z,99441.53
2023-01-15T11:26:03.170Z,99453.22
2023-01-15T11:28:40.098Z,99442.41
2023-01-15T11:31:04.708Z,99440.97
2023-01-15T11:33:30.250Z,99440.44
2023-01-15T11:35:58.421Z,99445.78
2023-01-15T11:38:23.516Z,99448.56
2023-01-15T11:40:53.980Z,99444.09
2023-01-15T11:43:37.593Z,99441.69
2023-01-15T11:46:18.485Z,99436.19
2023-01-15T11:49:04.680Z,99431.41
2023-01-15T11:51:30.742Z,99437.88
2023-01-15T11:54:04.578Z,99434.22
2023-01-15T11:56:31.255Z,99435.06
2023-01-15T11:58:58.768Z,99436.44
2023-01-15T12:01:30.095Z,99443.91
2023-01-15T12:03:54.573Z,99437.03
2023-01-15T12:06:22.283Z,99439.00
2023-01-15T12:08:51.588Z,99439.28
2023-01-15T12:11:49.359Z,99424.09
2023-01-15T12:14:51.349Z,99430.28
2023-01-15T12:17:50.334Z,99430.56
2023-01-15T12:20:24.544Z,99436.91
2023-01-15T12:23:10.650Z,99439.84
2023-01-15T12:25:42.481Z,99444.47
2023-01-15T12:28:13.618Z,99433.94
2023-01-15T12:30:46.875Z,99427.91
2023-01-15T12:33:22.314Z,99423.38
2023-01-15T12:35:56.660Z,99425.47
2023-01-15T12:38:31.572Z,99413.66
2023-01-15T12:41:01.992Z,99410.16
2023-01-15T12:43:45.572Z,99410.00
2023-01-15T12:46:16.736Z,99407.16
2023-01-15T12:48:47.960Z,99401.44
2023-01-15T12:51:28.357Z,99405.91
2023-01-15T12:53:57.490Z,99417.63
2023-01-15T12:56:26.310Z,99418.03
2023-01-15T12:58:54.495Z,99412.94
2023-01-15T13:01:27.685Z,99416.75
2023-01-15T13:04:05.291Z,99419.19
2023-01-15T13:06:30.200Z,99419.59
2023-01-15T13:09:03.351Z,99430.28
2023-01-15T13:11:27.038Z,99418.88
2023-01-15T13:13:59.024Z,99421.41
2023-01-15T13:16:41.892Z,99432.91
2023-01-15T13:19:36.843Z,99412.03
2023-01-15T13:22:10.096Z,99418.03
2023-01-15T13:25:02.959Z,99405.50
2023-01-15T13:27:40.045Z,99398.47
2023-01-15T13:30:27.931Z,99402.00
2023-01-15T13:32:56.593Z,99417.75
2023-01-15T13:35:31.606Z,99418.19
2023-01-15T13:37:57.588Z,99420.69
2023-01-15T13:40:29.434Z,99413.50
2023-01-15T13:42:53.559Z,99419.56
2023-01-15T13:45:33.625Z,99401.16
2023-01-15T13:48:05.684Z,99412.13
2023-01-15T13:50:32.946Z,99407.75
2023-01-15T13:53:09.136Z,99405.25
2023-01-15T13:55:36.165Z,99414.25
2023-01-15T13:57:59.787Z,99429.84
2023-01-15T14:00:34.132Z,99430.84
2023-01-15T14:03:01.145Z,99437.59
2023-01-15T14:05:42.651Z,99444.34
2023-01-15T14:08:18.303Z,99444.66
2023-01-15T14:10:42.025Z,99441.81
2023-01-15T14:13:46.834Z,99456.19
2023-01-15T14:16:21.745Z,99454.50
2023-01-15T14:19:23.265Z,99466.31
2023-01-15T14:21:59.645Z,99465.19
2023-01-15T14:24:56.796Z,99476.69
2023-01-15T14:27:49.708Z,99475.88
2023-01-15T14:30:34.069Z,99485.44
2023-01-15T14:33:10.972Z,99485.44
2023-01-15T14:35:46.322Z,99489.00
2023-01-15T14:38:17.826Z,99489.06
2023-01-15T14:40:55.597Z,99496.13
2023-01-15T14:43:24.480Z,99506.53
2023-01-15T14:45:52.710Z,99506.25
2023-01-15T14:48:39.459Z,99520.28
2023-01-15T14:51:12.034Z,99523.59
2023-01-15T14:53:43.143Z,99518.72
2023-01-15T14:56:19.476Z,99519.75
2023-01-15T14:58:52.720Z,99525.44
2023-01-15T15:01:32.424Z,99506.97
2023-01-15T15:04:00.117Z,99509.91
2023-01-15T15:06:25.705Z,99507.69
2023-01-15T15:08:50.796Z,99507.28
2023-01-15T15:11:48.342Z,99514.72
2023-01-15T15:14:15.489Z,99519.84
2023-01-15T15:16:46.347Z,99525.59
2023-01-15T15:19:19.416Z,99524.25
2023-01-15T15:21:47.699Z,99521.88
2023-01-15T15:24:22.764Z,99526.91
2023-01-15T15:26:46.565Z,99523.47
2023-01-15T15:29:15.204Z,99521.25
2023-01-15T15:31:42.113Z,99523.78
2023-01-15T15:34:07.750Z,99516.25
2023-01-15T15:36:36.475Z,99518.31
2023-01-15T15:39:06.336Z,99510.28
2023-01-15T15:41:52.011Z,99514.34
2023-01-15T15:44:36.927Z,99508.34
2023-01-15T15:47:17.940Z,99511.03
2023-01-15T15:49:42.665Z,99512.97
2023-01-15T15:52:21.209Z,99510.72
2023-01-15T15:54:46.183Z,99495.56
2023-01-15T15:57:16.861Z,99503.22
2023-01-15T15:59:48.241Z,99508.94
2023-01-15T16:02:22.179Z,99510.31
2023-01-15T16:04:50.988Z,99510.53
2023-01-15T16:07:15.941Z,99509.72
2023-01-15T16:09:42.580Z,99507.00
2023-01-15T16:12:09.070Z,99501.88
2023-01-15T16:14:36.990Z,99484.44
2023-01-15T16:17:00.945Z,99490.03
2023-01-15T16:19:27.703Z,99495.34
2023-01-15T16:21:53.135Z,99486.91
2023-01-15T16:24:29.443Z,99495.31
2023-01-15T16:27:02.663Z,99497.59
2023-01-15T16:29:31.145Z,99493.03
2023-01-15T16:31:56.062Z,99511.16
2023-01-15T16:34:22.595Z,99497.25
2023-01-15T16:36:47.059Z,99500.13
2023-01-15T16:39:24.753Z,99501.16
2023-01-15T16:41:48.888Z,99501.31
2023-01-15T16:44:31.524Z,99504.00
2023-01-15T16:46:58.699Z,99500.63
2023-01-15T16:49:28.782Z,99495.66
2023-01-15T16:51:53.471Z,99497.19
2023-01-15T16:54:45.880Z,99504.25
2023-01-15T16:57:32.236Z,99493.69
2023-01-15T17:00:00.157Z,99494.56
2023-01-15T17:02:23.885Z,99499.41
2023-01-15T17:04:48.431Z,99494.22
2023-01-15T17:07:20.785Z,99490.03
2023-01-15T17:09:47.544Z,99492.28
2023-01-15T17:12:24.167Z,99501.69
2023-01-15T17:14:47.700Z,99488.56
2023-01-15T17:17:27.755Z,99500.94
2023-01-15T17:19:53.040Z,99497.84
2023-01-15T17:22:18.198Z,99502.56
2023-01-15T17:24:49.067Z,99501.81
2023-01-15T17:27:12.648Z,99493.31
2023-01-15T17:29:36.152Z,99493.84
2023-01-15T17:32:04.420Z,99490.53
2023-01-15T17:34:30.818Z,99500.50
2023-01-15T17:36:54.388Z,99500.34
2023-01-15T17:39:20.396Z,99503.25
2023-01-15T17:41:44.049Z,99512.13
2023-01-15T17:44:07.983Z,99510.47
2023-01-15T17:46:31.631Z,99515.00
2023-01-15T17:48:55.157Z,99508.13
2023-01-15T17:51:20.185Z,99521.44
2023-01-15T17:53:44.108Z,99512.34
2023-01-15T17:56:26.858Z,99522.78
2023-01-15T17:59:08.366Z,99508.47
2023-01-15T18:01:55.912Z,99522.53
2023-01-15T18:04:41.704Z,99525.91
2023-01-15T18:07:06.906Z,99537.53
2023-01-15T18:09:31.580Z,99525.59
2023-01-15T18:11:55.320Z,99519.53
2023-01-15T18:14:18.967Z,99520.34
2023-01-15T18:16:42.569Z,99527.38
2023-01-15T18:19:06.647Z,99513.25
2023-01-15T18:21:30.189Z,99508.78
2023-01-15T18:23:55.071Z,99520.84
2023-01-15T18:26:18.659Z,99526.28
2023-01-15T18:28:42.362Z,99506.84
2023-01-15T18:31:06.708Z,99519.47
2023-01-15T18:33:30.629Z,99517.69
2023-01-15T18:36:04.493Z,99527.66
2023-01-15T18:38:28.233Z,99529.13
2023-01-15T18:40:53.153Z,99522.84
2023-01-15T18:43:33.928Z,99527.50
2023-01-15T18:46:14.924Z,99516.78
2023-01-15T18:48:38.546Z,99523.50
2023-01-15T18:51:08.890Z,99525.78
2023-01-15T18:53:32.487Z,99522.78
2023-01-15T18:56:03.785Z,99529.22
2023-01-15T18:58:27.349Z,99521.88
2023-01-15T19:00:50.958Z,99515.50
2023-01-15T19:03:14.531Z,99522.31
2023-01-15T19:05:38.079Z,99524.09
2023-01-15T19:08:01.840Z,99519.38
2023-01-15T19:10:25.594Z,99525.66
2023-01-15T19:12:50.715Z,99524.69
2023-01-15T19:15:36.993Z,99526.38
2023-01-15T19:18:17.947Z,99528.53
2023-01-15T19:20:41.576Z,99528.91
2023-01-15T19:23:06.687Z,99524.69
2023-01-15T19:25:36.837Z,99522.72
2023-01-15T19:28:01.857Z,99524.94
2023-01-15T19:30:26.183Z,99531.75
2023-01-15T19:32:49.941Z,99521.47
2023-01-15T19:35:14.175Z,99527.34
2023-01-15T19:37:39.774Z,99523.78
2023-01-15T19:40:03.341Z,99531.00
2023-01-15T19:42:44.524Z,99527.56
2023-01-15T19:45:28.895Z,99539.81
2023-01-15T19:48:09.785Z,99531.88
2023-01-15T19:50:38.053Z,99543.06
2023-01-15T19:53:01.992Z,99547.31
2023-01-15T19:55:26.520Z,99543.56
2023-01-15T19:57:58.312Z,99538.53
2023-01-15T20:00:25.338Z,99545.81
2023-01-15T20:02:48.917Z,99534.63
2023-01-15T20:05:14.764Z,99539.72
2023-01-15T20:07:39.022Z,99550.53
2023-01-15T20:10:02.603Z,99543.16
2023-01-15T20:12:43.440Z,99535.28
2023-01-15T20:15:09.399Z,99551.66
2023-01-15T20:17:34.355Z,99552.03
2023-01-15T20:19:58.118Z,99552.09
2023-01-15T20:22:22.053Z,99554.34
2023-01-15T20:24:45.702Z,99560.63
2023-01-15T20:27:09.362Z,99565.81
2023-01-15T20:29:32.951Z,99571.09
2023-01-15T20:31:56.480Z,99563.28
2023-01-15T20:34:21.480Z,99552.19
2023-01-15T20:36:45.019Z,99565.09
2023-01-15T20:39:08.581Z,99571.31
2023-01-15T20:42:01.104Z,99562.69
2023-01-15T20:44:42.391Z,99565.97
2023-01-15T20:47:26.406Z,99556.63
2023-01-15T20:49:51.480Z,99566.56
2023-01-15T20:52:14.974Z,99575.56
2023-01-15T20:54:38.591Z,99570.25
2023-01-15T20:57:02.140Z,99559.94
2023-01-15T20:59:25.885Z,99562.44
2023-01-15T21:01:49.445Z,99560.84
2023-01-15T21:04:13.802Z,99564.41
2023-01-15T21:06:38.912Z,99562.72
2023-01-15T21:09:02.533Z,99570.84
2023-01-15T21:11:26.854Z,99577.69
2023-01-15T21:13:50.407Z,99572.69
2023-01-15T21:16:16.031Z,99567.56
2023-01-15T21:18:43.204Z,99559.78
2023-01-15T21:21:10.579Z,99562.72
2023-01-15T21:23:35.626Z,99566.06
2023-01-15T21:26:02.838Z,99572.09
2023-01-15T21:28:26.407Z,99570.69
2023-01-15T21:30:49.930Z,99572.09
2023-01-15T21:33:13.848Z,99572.56
2023-01-15T21:35:41.500Z,99569.88
2023-01-15T21:38:05.064Z,99564.53
2023-01-15T21:40:29.997Z,99565.88
2023-01-15T21:43:10.986Z,99579.13
2023-01-15T21:45:34.619Z,99569.03
2023-01-15T21:47:58.232Z,99576.44
2023-01-15T21:50:21.996Z,99576.38
2023-01-15T21:52:45.664Z,99584.22
2023-01-15T21:55:10.510Z,99579.25
2023-01-15T21:57:35.454Z,99585.19
2023-01-15T21:59:59.092Z,99583.13
2023-01-15T22:02:23.488Z,99575.06
2023-01-15T22:04:47.349Z,99570.91
2023-01-15T22:07:11.452Z,99579.91
2023-01-15T22:09:35.042Z,99588.38
2023-01-15T22:11:58.580Z,99576.16
2023-01-15T22:14:28.360Z,99585.25
2023-01-15T22:16:54.477Z,99574.53
2023-01-15T22:19:19.993Z,99572.50
2023-01-15T22:21:43.575Z,99577.94
2023-01-15T22:24:08.606Z,99573.75
2023-01-15T22:26:32.544Z,99576.88
2023-01-15T22:28:57.690Z,99575.69
2023-01-15T22:31:22.602Z,99577.69
2023-01-15T22:33:46.428Z,99571.56
2023-01-15T22:36:13.078Z,99576.59
2023-01-15T22:38:36.784Z,99573.34
2023-01-15T22:41:00.659Z,99571.56
2023-01-15T22:43:23.204Z,99571.78
2023-01-15T22:45:46.781Z,99576.09
2023-01-15T22:48:12.257Z,99567.41
2023-01-15T22:50:35.886Z,99563.56
2023-01-15T22:52:59.409Z,99569.22
2023-01-15T22:55:22.965Z,99562.19
2023-01-15T22:57:47.725Z,99561.50
2023-01-15T23:00:12.928Z,99566.81
2023-01-15T23:02:53.723Z,99568.47
2023-01-15T23:05:18.872Z,99570.47
2023-01-15T23:07:42.403Z,99568.06
2023-01-15T23:10:08.535Z,99576.09
2023-01-15T23:12:32.380Z,99580.84
2023-01-15T23:14:55.981Z,99572.50
2023-01-15T23:17:19.501Z,99576.38
2023-01-15T23:19:43.090Z,99566.97
2023-01-15T23:22:07.989Z,99575.91
2023-01-15T23:24:31.557Z,99581.97
2023-01-15T23:26:55.120Z,99577.16
2023-01-15T23:29:18.707Z,99568.44
2023-01-15T23:31:42.223Z,99580.44
2023-01-15T23:34:05.807Z,99583.53
2023-01-15T23:36:29.716Z,99577.16
2023-01-15T23:38:54.754Z,99575.81
2023-01-15T23:41:42.827Z,99570.00
2023-01-15T23:44:24.604Z,99569.88
2023-01-15T23:46:48.264Z,99572.81
2023-01-15T23:49:13.059Z,99566.03
2023-01-15T23:51:37.542Z,99569.63
2023-01-15T23:54:03.126Z,99569.88
2023-01-15T23:56:26.791Z,99568.44
2023-01-15T23:58:50.434Z,99569.34
